sensor_id;sensor_type;location;lat;lon;timestamp;temperature;humidity
7030;DHT22;3556;53.500;10.176;2023-10-09T00:01:50;10.70;99.90
7030;DHT22;3556;53.500;10.176;2023-10-09T00:04:17;10.70;99.90
7030;DHT22;3556;53.500;10.176;2023-10-09T00:06:42;10.70;99.90
7030;DHT22;3556;53.500;10.176;2023-10-09T00:09:09;10.70;99.90
7030;DHT22;3556;53.500;10.176;2023-10-09T00:11:44;10.70;99.90
7030;DHT22;3556;53.500;10.176;2023-10-09T00:14:11;10.70;99.90
7030;DHT22;3556;53.500;10.176;2023-10-09T00:16:37;10.60;99.90
7030;DHT22;3556;53.500;10.176;2023-10-09T00:19:12;10.60;99.90
7030;DHT22;3556;53.500;10.176;2023-10-09T00:21:55;10.60;99.90
7030;DHT22;3556;53.500;10.176;2023-10-09T00:24:24;10.60;99.90
7030;DHT22;3556;53.500;10.176;2023-10-09T00:26:54;10.50;99.90
7030;DHT22;3556;53.500;10.176;2023-10-09T00:29:36;10.50;99.90
7030;DHT22;3556;53.500;10.176;2023-10-09T00:32:07;10.50;99.90
7030;DHT22;3556;53.500;10.176;2023-10-09T00:34:50;10.50;99.90
7030;DHT22;3556;53.500;10.176;2023-10-09T00:37:16;10.50;99.90
7030;DHT22;3556;53.500;10.176;2023-10-09T00:39:43;10.50;99.90
7030;DHT22;3556;53.500;10.176;2023-10-09T00:42:13;10.50;99.90
7030;DHT22;3556;53.500;10.176;2023-10-09T00:44:40;10.50;99.90
7030;DHT22;3556;53.500;10.176;2023-10-09T00:47:12;10.50;99.90
7030;DHT22;3556;53.500;10.176;2023-10-09T00:49:52;10.50;99.90
7030;DHT22;3556;53.500;10.176;2023-10-09T00:52:31;10.50;99.90
7030;DHT22;3556;53.500;10.176;2023-10-09T00:55:00;10.40;99.90
7030;DHT22;3556;53.500;10.176;2023-10-09T00:57:46;10.40;99.90
7030;DHT22;3556;53.500;10.176;2023-10-09T01:00:28;10.40;99.90
7030;DHT22;3556;53.500;10.176;2023-10-09T01:03:17;10.40;99.90
7030;DHT22;3556;53.500;10.176;2023-10-09T01:08:21;10.40;99.90
7030;DHT22;3556;53.500;10.176;2023-10-09T01:11:05;10.40;99.90
7030;DHT22;3556;53.500;10.176;2023-10-09T01:13:47;10.30;99.90
7030;DHT22;3556;53.500;10.176;2023-10-09T01:16:14;10.30;99.90
7030;DHT22;3556;53.500;10.176;2023-10-09T01:18:52;10.30;99.90
7030;DHT22;3556;53.500;10.176;2023-10-09T01:21:20;10.30;99.90
7030;DHT22;3556;53.500;10.176;2023-10-09T01:23:57;10.30;99.90
7030;DHT22;3556;53.500;10.176;2023-10-09T01:26:36;10.30;99.90
7030;DHT22;3556;53.500;10.176;2023-10-09T01:29:13;10.30;99.90
7030;DHT22;3556;53.500;10.176;2023-10-09T01:34:31;10.30;99.90
7030;DHT22;3556;53.500;10.176;2023-10-09T01:37:03;10.30;99.90
7030;DHT22;3556;53.500;10.176;2023-10-09T01:39:30;10.30;99.90
7030;DHT22;3556;53.500;10.176;2023-10-09T01:41:56;10.30;99.90
7030;DHT22;3556;53.500;10.176;2023-10-09T01:44:27;10.20;99.90
7030;DHT22;3556;53.500;10.176;2023-10-09T01:47:03;10.20;99.90
7030;DHT22;3556;53.500;10.176;2023-10-09T01:49:42;10.20;99.90
7030;DHT22;3556;53.500;10.176;2023-10-09T01:52:11;10.20;99.90
7030;DHT22;3556;53.500;10.176;2023-10-09T01:54:45;10.20;99.90
7030;DHT22;3556;53.500;10.176;2023-10-09T01:57:14;10.20;99.90
7030;DHT22;3556;53.500;10.176;2023-10-09T01:59:48;10.20;99.90
7030;DHT22;3556;53.500;10.176;2023-10-09T02:02:19;10.20;99.90
7030;DHT22;3556;53.500;10.176;2023-10-09T02:04:56;10.20;99.90
7030;DHT22;3556;53.500;10.176;2023-10-09T02:07:41;10.20;99.90
7030;DHT22;3556;53.500;10.176;2023-10-09T02:10:08;10.20;99.90
7030;DHT22;3556;53.500;10.176;2023-10-09T02:12:49;10.10;99.90
7030;DHT22;3556;53.500;10.176;2023-10-09T02:15:39;10.10;99.90
7030;DHT22;3556;53.500;10.176;2023-10-09T02:23:28;10.00;99.90
7030;DHT22;3556;53.500;10.176;2023-10-09T02:26:16;10.00;99.90
7030;DHT22;3556;53.500;10.176;2023-10-09T02:28:51;10.00;99.90
7030;DHT22;3556;53.500;10.176;2023-10-09T02:31:29;10.00;99.90
7030;DHT22;3556;53.500;10.176;2023-10-09T02:34:08;9.90;99.90
7030;DHT22;3556;53.500;10.176;2023-10-09T02:36:34;9.90;99.90
7030;DHT22;3556;53.500;10.176;2023-10-09T02:39:14;9.90;99.90
7030;DHT22;3556;53.500;10.176;2023-10-09T02:41:52;9.90;99.90
7030;DHT22;3556;53.500;10.176;2023-10-09T02:44:20;9.90;99.90
7030;DHT22;3556;53.500;10.176;2023-10-09T02:46:56;9.90;99.90
7030;DHT22;3556;53.500;10.176;2023-10-09T02:49:26;9.90;99.90
7030;DHT22;3556;53.500;10.176;2023-10-09T02:51:52;9.80;99.90
7030;DHT22;3556;53.500;10.176;2023-10-09T02:54:21;9.80;99.90
7030;DHT22;3556;53.500;10.176;2023-10-09T02:56:47;9.80;99.90
7030;DHT22;3556;53.500;10.176;2023-10-09T02:59:21;9.80;99.90
7030;DHT22;3556;53.500;10.176;2023-10-09T03:01:48;9.80;99.90
7030;DHT22;3556;53.500;10.176;2023-10-09T03:04:14;9.80;99.90
7030;DHT22;3556;53.500;10.176;2023-10-09T03:06:41;9.80;99.90
7030;DHT22;3556;53.500;10.176;2023-10-09T03:09:25;9.80;99.90
7030;DHT22;3556;53.500;10.176;2023-10-09T03:11:55;9.80;99.90
7030;DHT22;3556;53.500;10.176;2023-10-09T03:14:25;9.70;99.90
7030;DHT22;3556;53.500;10.176;2023-10-09T03:16:57;9.70;99.90
7030;DHT22;3556;53.500;10.176;2023-10-09T03:19:27;9.70;99.90
7030;DHT22;3556;53.500;10.176;2023-10-09T03:21:54;9.70;99.90
7030;DHT22;3556;53.500;10.176;2023-10-09T03:24:23;9.70;99.90
7030;DHT22;3556;53.500;10.176;2023-10-09T03:26:48;9.70;99.90
7030;DHT22;3556;53.500;10.176;2023-10-09T03:29:14;9.70;99.90
7030;DHT22;3556;53.500;10.176;2023-10-09T03:31:40;9.70;99.90
7030;DHT22;3556;53.500;10.176;2023-10-09T03:34:08;9.70;99.90
7030;DHT22;3556;53.500;10.176;2023-10-09T03:36:36;9.60;99.90
7030;DHT22;3556;53.500;10.176;2023-10-09T03:39:05;9.60;99.90
7030;DHT22;3556;53.500;10.176;2023-10-09T03:41:44;9.60;99.90
7030;DHT22;3556;53.500;10.176;2023-10-09T03:44:16;9.60;99.90
7030;DHT22;3556;53.500;10.176;2023-10-09T03:46:45;9.60;99.90
7030;DHT22;3556;53.500;10.176;2023-10-09T03:49:10;9.60;99.90
7030;DHT22;3556;53.500;10.176;2023-10-09T03:51:36;9.60;99.90
7030;DHT22;3556;53.500;10.176;2023-10-09T03:54:02;9.50;99.90
7030;DHT22;3556;53.500;10.176;2023-10-09T03:56:33;9.50;99.90
7030;DHT22;3556;53.500;10.176;2023-10-09T03:58:59;9.60;99.90
7030;DHT22;3556;53.500;10.176;2023-10-09T04:01:26;9.60;99.90
7030;DHT22;3556;53.500;10.176;2023-10-09T04:03:59;9.50;99.90
7030;DHT22;3556;53.500;10.176;2023-10-09T04:06:30;9.60;99.90
7030;DHT22;3556;53.500;10.176;2023-10-09T04:09:25;9.60;99.90
7030;DHT22;3556;53.500;10.176;2023-10-09T04:11:52;9.60;99.90
7030;DHT22;3556;53.500;10.176;2023-10-09T04:14:40;9.60;99.90
7030;DHT22;3556;53.500;10.176;2023-10-09T04:17:14;9.50;99.90
7030;DHT22;3556;53.500;10.176;2023-10-09T04:19:49;9.50;99.90
7030;DHT22;3556;53.500;10.176;2023-10-09T04:22:38;9.50;99.90
7030;DHT22;3556;53.500;10.176;2023-10-09T04:25:08;9.50;99.90
7030;DHT22;3556;53.500;10.176;2023-10-09T04:27:43;9.50;99.90
7030;DHT22;3556;53.500;10.176;2023-10-09T04:30:10;9.50;99.90
7030;DHT22;3556;53.500;10.176;2023-10-09T04:32:41;9.50;99.90
7030;DHT22;3556;53.500;10.176;2023-10-09T04:35:10;9.50;99.90
7030;DHT22;3556;53.500;10.176;2023-10-09T04:37:47;9.50;99.90
7030;DHT22;3556;53.500;10.176;2023-10-09T04:40:29;9.50;99.90
7030;DHT22;3556;53.500;10.176;2023-10-09T04:43:16;9.60;99.90
7030;DHT22;3556;53.500;10.176;2023-10-09T04:45:51;9.50;99.90
7030;DHT22;3556;53.500;10.176;2023-10-09T04:48:38;9.50;99.90
7030;DHT22;3556;53.500;10.176;2023-10-09T04:51:05;9.60;99.90
7030;DHT22;3556;53.500;10.176;2023-10-09T04:53:57;9.50;99.90
7030;DHT22;3556;53.500;10.176;2023-10-09T04:56:38;9.60;99.90
7030;DHT22;3556;53.500;10.176;2023-10-09T04:59:17;9.50;99.90
7030;DHT22;3556;53.500;10.176;2023-10-09T05:01:44;9.50;99.90
7030;DHT22;3556;53.500;10.176;2023-10-09T05:04:23;9.50;99.90
7030;DHT22;3556;53.500;10.176;2023-10-09T05:07:01;9.50;99.90
7030;DHT22;3556;53.500;10.176;2023-10-09T05:09:46;9.50;99.90
7030;DHT22;3556;53.500;10.176;2023-10-09T05:12:21;9.50;99.90
7030;DHT22;3556;53.500;10.176;2023-10-09T05:14:51;9.50;99.90
7030;DHT22;3556;53.500;10.176;2023-10-09T05:17:32;9.50;99.90
7030;DHT22;3556;53.500;10.176;2023-10-09T05:20:00;9.50;99.90
7030;DHT22;3556;53.500;10.176;2023-10-09T05:22:43;9.50;99.90
7030;DHT22;3556;53.500;10.176;2023-10-09T05:25:23;9.50;99.90
7030;DHT22;3556;53.500;10.176;2023-10-09T05:28:08;9.50;99.90
7030;DHT22;3556;53.500;10.176;2023-10-09T05:30:54;9.50;99.90
7030;DHT22;3556;53.500;10.176;2023-10-09T05:33:34;9.60;99.90
7030;DHT22;3556;53.500;10.176;2023-10-09T05:36:05;9.60;99.90
7030;DHT22;3556;53.500;10.176;2023-10-09T05:38:51;9.50;99.90
7030;DHT22;3556;53.500;10.176;2023-10-09T05:41:46;9.50;99.90
7030;DHT22;3556;53.500;10.176;2023-10-09T05:44:25;9.50;99.90
7030;DHT22;3556;53.500;10.176;2023-10-09T05:47:09;9.50;99.90
7030;DHT22;3556;53.500;10.176;2023-10-09T05:49:52;9.50;99.90
7030;DHT22;3556;53.500;10.176;2023-10-09T05:52:33;9.50;99.90
7030;DHT22;3556;53.500;10.176;2023-10-09T05:57:45;9.50;99.90
7030;DHT22;3556;53.500;10.176;2023-10-09T06:00:29;9.50;99.90
7030;DHT22;3556;53.500;10.176;2023-10-09T06:03:14;9.60;99.90
7030;DHT22;3556;53.500;10.176;2023-10-09T06:05:42;9.50;99.90
7030;DHT22;3556;53.500;10.176;2023-10-09T06:08:20;9.60;99.90
7030;DHT22;3556;53.500;10.176;2023-10-09T06:11:23;9.50;99.90
7030;DHT22;3556;53.500;10.176;2023-10-09T06:13:59;9.50;99.90
7030;DHT22;3556;53.500;10.176;2023-10-09T06:16:32;9.50;99.90
7030;DHT22;3556;53.500;10.176;2023-10-09T06:19:16;9.40;99.90
7030;DHT22;3556;53.500;10.176;2023-10-09T06:21:47;9.50;99.90
7030;DHT22;3556;53.500;10.176;2023-10-09T06:24:31;9.50;99.90
7030;DHT22;3556;53.500;10.176;2023-10-09T06:27:08;9.50;99.90
7030;DHT22;3556;53.500;10.176;2023-10-09T06:29:37;9.40;99.90
7030;DHT22;3556;53.500;10.176;2023-10-09T06:32:15;9.40;99.90
7030;DHT22;3556;53.500;10.176;2023-10-09T06:37:20;9.40;99.90
7030;DHT22;3556;53.500;10.176;2023-10-09T06:39:53;9.40;99.90
7030;DHT22;3556;53.500;10.176;2023-10-09T06:42:24;9.40;99.90
7030;DHT22;3556;53.500;10.176;2023-10-09T06:45:10;9.40;99.90
7030;DHT22;3556;53.500;10.176;2023-10-09T06:47:51;9.40;99.90
7030;DHT22;3556;53.500;10.176;2023-10-09T06:50:34;9.40;99.90
7030;DHT22;3556;53.500;10.176;2023-10-09T06:53:19;9.40;99.90
7030;DHT22;3556;53.500;10.176;2023-10-09T06:55:45;9.50;99.90
7030;DHT22;3556;53.500;10.176;2023-10-09T07:00:53;9.50;99.90
7030;DHT22;3556;53.500;10.176;2023-10-09T07:03:28;9.50;99.90
7030;DHT22;3556;53.500;10.176;2023-10-09T07:06:10;9.50;99.90
7030;DHT22;3556;53.500;10.176;2023-10-09T07:09:12;9.50;99.90
7030;DHT22;3556;53.500;10.176;2023-10-09T07:11:39;9.50;99.90
7030;DHT22;3556;53.500;10.176;2023-10-09T07:14:09;9.50;99.90
7030;DHT22;3556;53.500;10.176;2023-10-09T07:16:57;9.50;99.90
7030;DHT22;3556;53.500;10.176;2023-10-09T07:19:24;9.50;99.90
7030;DHT22;3556;53.500;10.176;2023-10-09T07:22:05;9.50;99.90
7030;DHT22;3556;53.500;10.176;2023-10-09T07:24:42;9.50;99.90
7030;DHT22;3556;53.500;10.176;2023-10-09T07:27:16;9.50;99.90
7030;DHT22;3556;53.500;10.176;2023-10-09T07:29:43;9.50;99.90
7030;DHT22;3556;53.500;10.176;2023-10-09T07:32:17;9.60;99.90
7030;DHT22;3556;53.500;10.176;2023-10-09T07:34:49;9.60;99.90
7030;DHT22;3556;53.500;10.176;2023-10-09T07:37:28;9.60;99.90
7030;DHT22;3556;53.500;10.176;2023-10-09T07:39:58;9.60;99.90
7030;DHT22;3556;53.500;10.176;2023-10-09T07:42:25;9.60;99.90
7030;DHT22;3556;53.500;10.176;2023-10-09T07:45:06;9.70;99.90
7030;DHT22;3556;53.500;10.176;2023-10-09T07:47:58;9.70;99.90
7030;DHT22;3556;53.500;10.176;2023-10-09T07:50:36;9.70;99.90
7030;DHT22;3556;53.500;10.176;2023-10-09T07:53:15;9.80;99.90
7030;DHT22;3556;53.500;10.176;2023-10-09T07:55:44;9.80;99.90
7030;DHT22;3556;53.500;10.176;2023-10-09T07:58:20;9.80;99.90
7030;DHT22;3556;53.500;10.176;2023-10-09T08:00:52;9.90;99.90
7030;DHT22;3556;53.500;10.176;2023-10-09T08:03:35;9.90;99.90
7030;DHT22;3556;53.500;10.176;2023-10-09T08:06:02;9.90;99.90
7030;DHT22;3556;53.500;10.176;2023-10-09T08:08:46;10.00;99.90
7030;DHT22;3556;53.500;10.176;2023-10-09T08:11:31;10.00;99.90
7030;DHT22;3556;53.500;10.176;2023-10-09T08:14:08;10.00;99.90
7030;DHT22;3556;53.500;10.176;2023-10-09T08:16:47;10.10;99.90
7030;DHT22;3556;53.500;10.176;2023-10-09T08:19:12;10.10;99.90
7030;DHT22;3556;53.500;10.176;2023-10-09T08:21:57;10.10;99.90
7030;DHT22;3556;53.500;10.176;2023-10-09T08:25:00;10.20;99.90
7030;DHT22;3556;53.500;10.176;2023-10-09T08:27:29;10.20;99.90
7030;DHT22;3556;53.500;10.176;2023-10-09T08:30:05;10.20;99.90
7030;DHT22;3556;53.500;10.176;2023-10-09T08:32:44;10.20;99.90
7030;DHT22;3556;53.500;10.176;2023-10-09T08:35:29;10.20;99.90
7030;DHT22;3556;53.500;10.176;2023-10-09T08:37:57;10.20;99.90
7030;DHT22;3556;53.500;10.176;2023-10-09T08:40:31;10.20;99.90
7030;DHT22;3556;53.500;10.176;2023-10-09T08:43:04;10.20;99.90
7030;DHT22;3556;53.500;10.176;2023-10-09T08:45:39;10.20;99.90
7030;DHT22;3556;53.500;10.176;2023-10-09T08:48:08;10.20;99.90
7030;DHT22;3556;53.500;10.176;2023-10-09T08:50:44;10.20;99.90
7030;DHT22;3556;53.500;10.176;2023-10-09T08:53:11;10.20;99.90
7030;DHT22;3556;53.500;10.176;2023-10-09T08:55:37;10.20;99.90
7030;DHT22;3556;53.500;10.176;2023-10-09T08:58:07;10.30;99.90
7030;DHT22;3556;53.500;10.176;2023-10-09T09:00:44;10.30;99.90
7030;DHT22;3556;53.500;10.176;2023-10-09T09:03:12;10.30;99.90
7030;DHT22;3556;53.500;10.176;2023-10-09T09:05:38;10.30;99.90
7030;DHT22;3556;53.500;10.176;2023-10-09T09:08:03;10.30;99.90
7030;DHT22;3556;53.500;10.176;2023-10-09T09:10:29;10.30;99.90
7030;DHT22;3556;53.500;10.176;2023-10-09T09:13:03;10.30;99.90
7030;DHT22;3556;53.500;10.176;2023-10-09T09:15:30;10.40;99.90
7030;DHT22;3556;53.500;10.176;2023-10-09T09:18:07;10.40;99.90
7030;DHT22;3556;53.500;10.176;2023-10-09T09:20:36;10.40;99.90
7030;DHT22;3556;53.500;10.176;2023-10-09T09:23:09;10.40;99.90
7030;DHT22;3556;53.500;10.176;2023-10-09T09:25:47;10.50;99.90
7030;DHT22;3556;53.500;10.176;2023-10-09T09:28:14;10.50;99.90
7030;DHT22;3556;53.500;10.176;2023-10-09T09:30:47;10.50;99.90
7030;DHT22;3556;53.500;10.176;2023-10-09T09:33:27;10.60;99.90
7030;DHT22;3556;53.500;10.176;2023-10-09T09:36:06;10.60;99.90
7030;DHT22;3556;53.500;10.176;2023-10-09T09:38:34;10.60;99.90
7030;DHT22;3556;53.500;10.176;2023-10-09T09:41:16;10.60;99.90
7030;DHT22;3556;53.500;10.176;2023-10-09T09:43:59;10.70;99.90
7030;DHT22;3556;53.500;10.176;2023-10-09T09:46:32;10.70;99.90
7030;DHT22;3556;53.500;10.176;2023-10-09T09:49:03;10.70;99.90
7030;DHT22;3556;53.500;10.176;2023-10-09T09:51:31;10.80;99.90
7030;DHT22;3556;53.500;10.176;2023-10-09T09:53:57;10.80;99.90
7030;DHT22;3556;53.500;10.176;2023-10-09T09:56:29;10.80;99.90
7030;DHT22;3556;53.500;10.176;2023-10-09T09:58:57;10.80;99.90
7030;DHT22;3556;53.500;10.176;2023-10-09T10:01:30;10.80;99.90
7030;DHT22;3556;53.500;10.176;2023-10-09T10:04:14;10.80;99.90
7030;DHT22;3556;53.500;10.176;2023-10-09T10:06:46;10.80;99.90
7030;DHT22;3556;53.500;10.176;2023-10-09T10:12:04;10.90;99.90
7030;DHT22;3556;53.500;10.176;2023-10-09T10:14:54;11.00;99.90
7030;DHT22;3556;53.500;10.176;2023-10-09T10:18:07;11.00;99.90
7030;DHT22;3556;53.500;10.176;2023-10-09T10:20:32;11.00;99.90
7030;DHT22;3556;53.500;10.176;2023-10-09T10:23:19;11.00;99.90
7030;DHT22;3556;53.500;10.176;2023-10-09T10:25:46;11.10;99.90
7030;DHT22;3556;53.500;10.176;2023-10-09T10:28:19;11.10;99.90
7030;DHT22;3556;53.500;10.176;2023-10-09T10:30:54;11.20;99.90
7030;DHT22;3556;53.500;10.176;2023-10-09T10:33:20;11.10;99.90
7030;DHT22;3556;53.500;10.176;2023-10-09T10:35:48;11.20;99.90
7030;DHT22;3556;53.500;10.176;2023-10-09T10:38:27;11.20;99.90
7030;DHT22;3556;53.500;10.176;2023-10-09T10:41:19;11.20;99.90
7030;DHT22;3556;53.500;10.176;2023-10-09T10:43:48;11.20;99.90
7030;DHT22;3556;53.500;10.176;2023-10-09T10:46:21;11.20;99.90
7030;DHT22;3556;53.500;10.176;2023-10-09T10:48:58;11.30;99.90
7030;DHT22;3556;53.500;10.176;2023-10-09T10:51:34;11.30;99.90
7030;DHT22;3556;53.500;10.176;2023-10-09T10:54:03;11.40;99.90
7030;DHT22;3556;53.500;10.176;2023-10-09T10:56:48;11.30;99.90
7030;DHT22;3556;53.500;10.176;2023-10-09T10:59:14;11.40;99.90
7030;DHT22;3556;53.500;10.176;2023-10-09T11:01:48;11.40;99.90
7030;DHT22;3556;53.500;10.176;2023-10-09T11:04:24;11.40;99.90
7030;DHT22;3556;53.500;10.176;2023-10-09T11:06:56;11.50;99.90
7030;DHT22;3556;53.500;10.176;2023-10-09T11:09:56;11.50;99.90
7030;DHT22;3556;53.500;10.176;2023-10-09T11:12:51;11.50;99.90
7030;DHT22;3556;53.500;10.176;2023-10-09T11:15:39;11.50;99.90
7030;DHT22;3556;53.500;10.176;2023-10-09T11:18:13;11.50;99.90
7030;DHT22;3556;53.500;10.176;2023-10-09T11:20:46;11.50;99.90
7030;DHT22;3556;53.500;10.176;2023-10-09T11:23:31;11.50;99.90
7030;DHT22;3556;53.500;10.176;2023-10-09T11:26:01;11.50;99.90
7030;DHT22;3556;53.500;10.176;2023-10-09T11:29:09;11.60;99.90
7030;DHT22;3556;53.500;10.176;2023-10-09T11:32:04;11.60;99.90
7030;DHT22;3556;53.500;10.176;2023-10-09T11:34:35;11.70;99.90
7030;DHT22;3556;53.500;10.176;2023-10-09T11:37:13;11.70;99.90
7030;DHT22;3556;53.500;10.176;2023-10-09T11:39:41;11.70;99.90
7030;DHT22;3556;53.500;10.176;2023-10-09T11:42:19;11.80;99.90
7030;DHT22;3556;53.500;10.176;2023-10-09T11:45:05;11.80;99.90
7030;DHT22;3556;53.500;10.176;2023-10-09T11:47:52;11.80;99.90
7030;DHT22;3556;53.500;10.176;2023-10-09T11:50:43;11.80;99.90
7030;DHT22;3556;53.500;10.176;2023-10-09T11:53:16;11.80;99.90
7030;DHT22;3556;53.500;10.176;2023-10-09T11:55:48;11.90;99.90
7030;DHT22;3556;53.500;10.176;2023-10-09T11:58:15;11.80;99.90
7030;DHT22;3556;53.500;10.176;2023-10-09T12:00:56;11.90;99.90
7030;DHT22;3556;53.500;10.176;2023-10-09T12:03:25;11.90;99.90
7030;DHT22;3556;53.500;10.176;2023-10-09T12:05:59;11.90;99.90
7030;DHT22;3556;53.500;10.176;2023-10-09T12:08:31;11.90;99.90
7030;DHT22;3556;53.500;10.176;2023-10-09T12:10:58;12.00;99.90
7030;DHT22;3556;53.500;10.176;2023-10-09T12:13:24;12.00;99.90
7030;DHT22;3556;53.500;10.176;2023-10-09T12:15:50;12.00;99.90
7030;DHT22;3556;53.500;10.176;2023-10-09T12:18:17;12.10;99.90
7030;DHT22;3556;53.500;10.176;2023-10-09T12:20:44;12.10;99.90
7030;DHT22;3556;53.500;10.176;2023-10-09T12:23:28;12.10;99.90
7030;DHT22;3556;53.500;10.176;2023-10-09T12:25:53;12.10;99.90
7030;DHT22;3556;53.500;10.176;2023-10-09T12:28:22;12.20;99.90
7030;DHT22;3556;53.500;10.176;2023-10-09T12:30:48;12.10;99.90
7030;DHT22;3556;53.500;10.176;2023-10-09T12:33:18;12.20;99.90
7030;DHT22;3556;53.500;10.176;2023-10-09T12:35:45;12.20;99.90
7030;DHT22;3556;53.500;10.176;2023-10-09T12:38:12;12.30;99.90
7030;DHT22;3556;53.500;10.176;2023-10-09T12:40:38;12.30;99.90
7030;DHT22;3556;53.500;10.176;2023-10-09T12:43:07;12.40;99.90
7030;DHT22;3556;53.500;10.176;2023-10-09T12:45:41;12.40;99.90
7030;DHT22;3556;53.500;10.176;2023-10-09T12:48:07;12.40;99.90
7030;DHT22;3556;53.500;10.176;2023-10-09T12:50:38;12.50;99.90
7030;DHT22;3556;53.500;10.176;2023-10-09T12:53:08;12.50;99.90
7030;DHT22;3556;53.500;10.176;2023-10-09T12:55:40;12.50;99.90
7030;DHT22;3556;53.500;10.176;2023-10-09T12:58:10;12.50;99.90
7030;DHT22;3556;53.500;10.176;2023-10-09T13:00:40;12.50;99.90
7030;DHT22;3556;53.500;10.176;2023-10-09T13:03:16;12.60;99.90
7030;DHT22;3556;53.500;10.176;2023-10-09T13:05:52;12.60;99.90
7030;DHT22;3556;53.500;10.176;2023-10-09T13:08:26;12.60;99.90
7030;DHT22;3556;53.500;10.176;2023-10-09T13:11:05;12.60;99.90
7030;DHT22;3556;53.500;10.176;2023-10-09T13:13:40;12.60;99.90
7030;DHT22;3556;53.500;10.176;2023-10-09T13:16:13;12.60;99.90
7030;DHT22;3556;53.500;10.176;2023-10-09T13:18:46;12.70;99.90
7030;DHT22;3556;53.500;10.176;2023-10-09T13:21:22;12.70;99.90
7030;DHT22;3556;53.500;10.176;2023-10-09T13:23:49;12.70;99.90
7030;DHT22;3556;53.500;10.176;2023-10-09T13:26:17;12.80;99.90
7030;DHT22;3556;53.500;10.176;2023-10-09T13:28:50;12.80;99.90
7030;DHT22;3556;53.500;10.176;2023-10-09T13:31:17;12.80;99.90
7030;DHT22;3556;53.500;10.176;2023-10-09T13:33:43;12.90;99.90
7030;DHT22;3556;53.500;10.176;2023-10-09T13:36:13;12.90;99.90
7030;DHT22;3556;53.500;10.176;2023-10-09T13:38:52;13.00;99.90
7030;DHT22;3556;53.500;10.176;2023-10-09T13:41:19;13.00;99.90
7030;DHT22;3556;53.500;10.176;2023-10-09T13:43:44;13.10;99.90
7030;DHT22;3556;53.500;10.176;2023-10-09T13:46:10;13.10;99.90
7030;DHT22;3556;53.500;10.176;2023-10-09T13:48:42;13.00;99.90
7030;DHT22;3556;53.500;10.176;2023-10-09T13:51:12;13.10;99.90
7030;DHT22;3556;53.500;10.176;2023-10-09T13:53:45;13.10;99.90
7030;DHT22;3556;53.500;10.176;2023-10-09T13:56:16;13.10;99.90
7030;DHT22;3556;53.500;10.176;2023-10-09T13:58:49;13.10;99.90
7030;DHT22;3556;53.500;10.176;2023-10-09T14:01:19;13.10;99.90
7030;DHT22;3556;53.500;10.176;2023-10-09T14:03:57;13.10;99.90
7030;DHT22;3556;53.500;10.176;2023-10-09T14:06:24;13.10;99.90
7030;DHT22;3556;53.500;10.176;2023-10-09T14:08:59;13.10;99.90
7030;DHT22;3556;53.500;10.176;2023-10-09T14:11:33;13.10;99.90
7030;DHT22;3556;53.500;10.176;2023-10-09T14:14:03;13.20;99.90
7030;DHT22;3556;53.500;10.176;2023-10-09T14:16:29;13.20;99.90
7030;DHT22;3556;53.500;10.176;2023-10-09T14:18:58;13.20;99.90
7030;DHT22;3556;53.500;10.176;2023-10-09T14:21:33;13.20;99.90
7030;DHT22;3556;53.500;10.176;2023-10-09T14:24:03;13.20;99.90
7030;DHT22;3556;53.500;10.176;2023-10-09T14:26:29;13.20;99.90
7030;DHT22;3556;53.500;10.176;2023-10-09T14:28:55;13.30;99.90
7030;DHT22;3556;53.500;10.176;2023-10-09T14:31:25;13.30;99.90
7030;DHT22;3556;53.500;10.176;2023-10-09T14:33:57;13.30;99.90
7030;DHT22;3556;53.500;10.176;2023-10-09T14:36:23;13.30;99.90
7030;DHT22;3556;53.500;10.176;2023-10-09T14:38:51;13.30;99.90
7030;DHT22;3556;53.500;10.176;2023-10-09T14:41:21;13.30;99.90
7030;DHT22;3556;53.500;10.176;2023-10-09T14:43:50;13.30;99.90
7030;DHT22;3556;53.500;10.176;2023-10-09T14:46:16;13.30;99.90
7030;DHT22;3556;53.500;10.176;2023-10-09T14:48:45;13.30;99.90
7030;DHT22;3556;53.500;10.176;2023-10-09T14:51:11;13.30;99.90
7030;DHT22;3556;53.500;10.176;2023-10-09T14:53:39;13.40;99.90
7030;DHT22;3556;53.500;10.176;2023-10-09T14:56:05;13.40;99.90
7030;DHT22;3556;53.500;10.176;2023-10-09T14:58:35;13.40;99.90
7030;DHT22;3556;53.500;10.176;2023-10-09T15:01:10;13.40;99.90
7030;DHT22;3556;53.500;10.176;2023-10-09T15:03:37;13.40;99.90
7030;DHT22;3556;53.500;10.176;2023-10-09T15:06:05;13.40;99.90
7030;DHT22;3556;53.500;10.176;2023-10-09T15:08:36;13.40;99.90
7030;DHT22;3556;53.500;10.176;2023-10-09T15:11:02;13.40;99.90
7030;DHT22;3556;53.500;10.176;2023-10-09T15:13:28;13.40;99.90
7030;DHT22;3556;53.500;10.176;2023-10-09T15:15:54;13.50;99.90
7030;DHT22;3556;53.500;10.176;2023-10-09T15:18:21;13.40;99.90
7030;DHT22;3556;53.500;10.176;2023-10-09T15:20:48;13.40;99.90
7030;DHT22;3556;53.500;10.176;2023-10-09T15:23:14;13.50;99.90
7030;DHT22;3556;53.500;10.176;2023-10-09T15:25:39;13.50;99.90
7030;DHT22;3556;53.500;10.176;2023-10-09T15:28:08;13.50;99.90
7030;DHT22;3556;53.500;10.176;2023-10-09T15:30:35;13.50;99.90
7030;DHT22;3556;53.500;10.176;2023-10-09T15:33:06;13.50;99.90
7030;DHT22;3556;53.500;10.176;2023-10-09T15:35:33;13.50;99.90
7030;DHT22;3556;53.500;10.176;2023-10-09T15:38:02;13.50;99.90
7030;DHT22;3556;53.500;10.176;2023-10-09T15:40:30;13.50;99.90
7030;DHT22;3556;53.500;10.176;2023-10-09T15:43:00;13.50;99.90
7030;DHT22;3556;53.500;10.176;2023-10-09T15:45:26;13.50;99.90
7030;DHT22;3556;53.500;10.176;2023-10-09T15:47:54;13.50;99.90
7030;DHT22;3556;53.500;10.176;2023-10-09T15:50:20;13.50;99.90
7030;DHT22;3556;53.500;10.176;2023-10-09T15:52:52;13.50;99.90
7030;DHT22;3556;53.500;10.176;2023-10-09T15:55:19;13.50;99.90
7030;DHT22;3556;53.500;10.176;2023-10-09T15:57:46;13.50;99.90
7030;DHT22;3556;53.500;10.176;2023-10-09T16:00:14;13.50;99.90
7030;DHT22;3556;53.500;10.176;2023-10-09T16:02:49;13.50;99.90
7030;DHT22;3556;53.500;10.176;2023-10-09T16:05:18;13.50;99.90
7030;DHT22;3556;53.500;10.176;2023-10-09T16:07:44;13.50;99.90
7030;DHT22;3556;53.500;10.176;2023-10-09T16:10:10;13.50;99.90
7030;DHT22;3556;53.500;10.176;2023-10-09T16:12:40;13.50;99.90
7030;DHT22;3556;53.500;10.176;2023-10-09T16:15:09;13.50;99.90
7030;DHT22;3556;53.500;10.176;2023-10-09T16:17:36;13.50;99.90
7030;DHT22;3556;53.500;10.176;2023-10-09T16:20:05;13.50;99.90
7030;DHT22;3556;53.500;10.176;2023-10-09T16:22:39;13.50;99.90
7030;DHT22;3556;53.500;10.176;2023-10-09T16:25:05;13.50;99.90
7030;DHT22;3556;53.500;10.176;2023-10-09T16:27:37;13.50;99.90
7030;DHT22;3556;53.500;10.176;2023-10-09T16:30:05;13.50;99.90
7030;DHT22;3556;53.500;10.176;2023-10-09T16:32:38;13.50;99.90
7030;DHT22;3556;53.500;10.176;2023-10-09T16:35:04;13.50;99.90
7030;DHT22;3556;53.500;10.176;2023-10-09T16:37:30;13.50;99.90
7030;DHT22;3556;53.500;10.176;2023-10-09T16:39:59;13.50;99.90
7030;DHT22;3556;53.500;10.176;2023-10-09T16:42:28;13.40;99.90
7030;DHT22;3556;53.500;10.176;2023-10-09T16:44:54;13.40;99.90
7030;DHT22;3556;53.500;10.176;2023-10-09T16:47:21;13.40;99.90
7030;DHT22;3556;53.500;10.176;2023-10-09T16:49:47;13.40;99.90
7030;DHT22;3556;53.500;10.176;2023-10-09T16:52:17;13.40;99.90
7030;DHT22;3556;53.500;10.176;2023-10-09T16:54:43;13.40;99.90